^^
Saratoga-Weather Station Historical Data
Daily Summary for October 21, 2020 Units:  Both    English   Metric
Daily Weekly Monthly Yearly Custom
  High: Low: Average:
Temperature: 71.8 °F /  22.1 °C 50.4 °F /  10.2 °C 59.2 °F /  15.1 °C
Dew Point: 56.7 °F /  13.7 °C 49.1 °F /  9.5 °C 52.5 °F /  11.4 °C
Humidity: 97% 55% 80%
Wind Speed: 8.9mph /  14.3km/h - 1.2mph /  1.9km/h
Wind Gust: 16mph /  25.7km/h - -
Wind- - SSW
Pressure: 29.8 in /  1010.2 hPa 29.7 in /  1004.7 hPa -
Precipitation: 0.09 in /  2.3 mm    
Historical Graphs
 
 
Tabular Data for October 21, 2020
Time Temperature Dew Point Pressure Wind Wind Speed Wind Gust Humidity Rainfall Rate (Hourly) solar
00:00 52.9 °F /  11.6 °C 51.3 °F /  10.7 °C 29.8in /  1008.8hPa Calm     94% 0in /  0.0mm 0 W/m2
00:05 52.9 °F /  11.6 °C 51.3 °F /  10.7 °C 29.8in /  1008.8hPa Calm     94% 0in /  0.0mm 0 W/m2
00:10 52.9 °F /  11.6 °C 51.3 °F /  10.7 °C 29.8in /  1009.1hPa Calm     94% 0in /  0.0mm 0 W/m2
00:15 52.7 °F /  11.5 °C 51.1 °F /  10.6 °C 29.8in /  1009.1hPa Calm     94% 0in /  0.0mm 0 W/m2
00:20 52.7 °F /  11.5 °C 51.1 °F /  10.6 °C 29.8in /  1009.1hPa Calm     94% 0in /  0.0mm 0 W/m2
00:25 52.5 °F /  11.4 °C 50.9 °F /  10.5 °C 29.8in /  1008.8hPa Calm     94% 0in /  0.0mm 0 W/m2
00:30 52.5 °F /  11.4 °C 50.9 °F /  10.5 °C 29.8in /  1008.8hPa Calm     94% 0in /  0.0mm 0 W/m2
00:35 52.5 °F /  11.4 °C 50.9 °F /  10.5 °C 29.8in /  1008.8hPa Calm     94% 0in /  0.0mm 0 W/m2
00:40 52.3 °F /  11.3 °C 50.7 °F /  10.4 °C 29.8in /  1008.8hPa Calm     94% 0in /  0.0mm 0 W/m2
00:45 52.3 °F /  11.3 °C 50.7 °F /  10.4 °C 29.8in /  1008.8hPa Calm     94% 0in /  0.0mm 0 W/m2
00:50 52.3 °F /  11.3 °C 50.7 °F /  10.4 °C 29.8in /  1008.5hPa Calm     94% 0in /  0.0mm 0 W/m2
00:55 52.3 °F /  11.3 °C 50.7 °F /  10.4 °C 29.8in /  1008.5hPa Calm     94% 0in /  0.0mm 0 W/m2
01:00 52.3 °F /  11.3 °C 50.7 °F /  10.4 °C 29.8in /  1008.5hPa Calm     94% 0in /  0.0mm 0 W/m2
01:05 52.2 °F /  11.2 °C 50.5 °F /  10.3 °C 29.8in /  1008.5hPa Calm     94% 0in /  0.0mm 0 W/m2
01:10 52.2 °F /  11.2 °C 50.5 °F /  10.3 °C 29.8in /  1008.5hPa Calm     94% 0in /  0.0mm 0 W/m2
01:15 52.2 °F /  11.2 °C 50.5 °F /  10.3 °C 29.8in /  1008.5hPa Calm     94% 0in /  0.0mm 0 W/m2
01:20 52.2 °F /  11.2 °C 50.5 °F /  10.3 °C 29.8in /  1008.5hPa Calm     94% 0in /  0.0mm 0 W/m2
01:25 52.2 °F /  11.2 °C 50.5 °F /  10.3 °C 29.8in /  1008.5hPa Calm     94% 0in /  0.0mm 0 W/m2
01:30 52.2 °F /  11.2 °C 50.5 °F /  10.3 °C 29.8in /  1008.5hPa Calm     94% 0in /  0.0mm 0 W/m2
01:36 52 °F /  11.1 °C 50.4 °F /  10.2 °C 29.8in /  1008.5hPa Calm     94% 0in /  0.0mm 0 W/m2
01:41 52 °F /  11.1 °C 50.4 °F /  10.2 °C 29.8in /  1008.5hPa Calm     94% 0in /  0.0mm 0 W/m2
01:46 52 °F /  11.1 °C 50.4 °F /  10.2 °C 29.8in /  1008.5hPa Calm     94% 0in /  0.0mm 0 W/m2
01:51 52 °F /  11.1 °C 50.4 °F /  10.2 °C 29.8in /  1008.5hPa Calm     94% 0in /  0.0mm 0 W/m2
01:56 51.8 °F /  11 °C 50.2 °F /  10.1 °C 29.8in /  1008.1hPa Calm     94% 0in /  0.0mm 0 W/m2
02:01 51.6 °F /  10.9 °C 50 °F /  10 °C 29.8in /  1008.1hPa Calm     94% 0in /  0.0mm 0 W/m2
02:06 51.4 °F /  10.8 °C 49.8 °F /  9.9 °C 29.8in /  1008.1hPa Calm     94% 0in /  0.0mm 0 W/m2
02:11 51.4 °F /  10.8 °C 49.8 °F /  9.9 °C 29.8in /  1007.8hPa Calm     94% 0in /  0.0mm 0 W/m2
02:16 51.4 °F /  10.8 °C 49.8 °F /  9.9 °C 29.8in /  1007.8hPa Calm     94% 0in /  0.0mm 0 W/m2
02:21 51.3 °F /  10.7 °C 49.6 °F /  9.8 °C 29.8in /  1008.1hPa Calm     94% 0in /  0.0mm 0 W/m2
02:26 51.3 °F /  10.7 °C 49.6 °F /  9.8 °C 29.8in /  1008.1hPa Calm     94% 0in /  0.0mm 0 W/m2
02:31 51.1 °F /  10.6 °C 49.6 °F /  9.8 °C 29.8in /  1008.1hPa Calm     95% 0in /  0.0mm 0 W/m2
02:36 51.1 °F /  10.6 °C 49.5 °F /  9.7 °C 29.8in /  1008.1hPa Calm     94% 0in /  0.0mm 0 W/m2
02:41 51.1 °F /  10.6 °C 49.6 °F /  9.8 °C 29.8in /  1008.1hPa Calm     95% 0in /  0.0mm 0 W/m2
02:46 51.1 °F /  10.6 °C 49.6 °F /  9.8 °C 29.8in /  1008.1hPa Calm     95% 0in /  0.0mm 0 W/m2
02:51 51.1 °F /  10.6 °C 49.6 °F /  9.8 °C 29.8in /  1007.8hPa Calm     95% 0in /  0.0mm 0 W/m2
02:56 50.9 °F /  10.5 °C 49.5 °F /  9.7 °C 29.8in /  1007.8hPa Calm     95% 0in /  0.0mm 0 W/m2
03:01 50.9 °F /  10.5 °C 49.5 °F /  9.7 °C 29.8in /  1007.8hPa Calm     95% 0in /  0.0mm 0 W/m2
03:06 50.9 °F /  10.5 °C 49.5 °F /  9.7 °C 29.8in /  1007.8hPa Calm     95% 0in /  0.0mm 0 W/m2
03:11 50.7 °F /  10.4 °C 49.3 °F /  9.6 °C 29.8in /  1007.8hPa Calm     95% 0in /  0.0mm 0 W/m2
03:16 50.7 °F /  10.4 °C 49.3 °F /  9.6 °C 29.8in /  1007.5hPa Calm     95% 0in /  0.0mm 0 W/m2
03:21 50.7 °F /  10.4 °C 49.3 °F /  9.6 °C 29.8in /  1007.5hPa Calm     95% 0in /  0.0mm 0 W/m2
03:26 50.5 °F /  10.3 °C 49.1 °F /  9.5 °C 29.8in /  1007.5hPa Calm     95% 0in /  0.0mm 0 W/m2
03:31 50.7 °F /  10.4 °C 49.3 °F /  9.6 °C 29.8in /  1007.5hPa Calm     95% 0in /  0.0mm 0 W/m2
03:37 50.7 °F /  10.4 °C 49.3 °F /  9.6 °C 29.8in /  1007.5hPa Calm     95% 0in /  0.0mm 0 W/m2
03:42 50.7 °F /  10.4 °C 49.3 °F /  9.6 °C 29.8in /  1007.5hPa Calm     95% 0in /  0.0mm 0 W/m2
03:47 50.7 °F /  10.4 °C 49.3 °F /  9.6 °C 29.8in /  1007.5hPa Calm     95% 0in /  0.0mm 0 W/m2
03:52 50.7 °F /  10.4 °C 49.3 °F /  9.6 °C 29.8in /  1007.5hPa Calm     95% 0in /  0.0mm 0 W/m2
03:57 50.9 °F /  10.5 °C 49.5 °F /  9.7 °C 29.8in /  1007.5hPa Calm     95% 0in /  0.0mm 0 W/m2
04:02 50.9 °F /  10.5 °C 49.5 °F /  9.7 °C 29.8in /  1007.5hPa Calm   1mph /  1.6km/h 95% 0.01in /  0.2mm 0 W/m2
04:07 51.1 °F /  10.6 °C 49.6 °F /  9.8 °C 29.8in /  1007.5hPa Calm   2mph /  3.2km/h 95% 0.01in /  0.2mm 0 W/m2
04:12 51.1 °F /  10.6 °C 49.6 °F /  9.8 °C 29.7in /  1007.1hPa SE 0.9mph /  1.4km/h 1mph /  1.6km/h 95% 0.01in /  0.2mm 0 W/m2
04:17 51.3 °F /  10.7 °C 49.8 °F /  9.9 °C 29.7in /  1007.1hPa Calm   2mph /  3.2km/h 95% 0.01in /  0.2mm 0 W/m2
04:22 51.3 °F /  10.7 °C 49.8 °F /  9.9 °C 29.7in /  1007.1hPa Calm     95% 0.01in /  0.2mm 0 W/m2
04:27 51.3 °F /  10.7 °C 49.8 °F /  9.9 °C 29.7in /  1007.1hPa Calm   2mph /  3.2km/h 95% 0.01in /  0.2mm 0 W/m2
04:32 51.3 °F /  10.7 °C 49.8 °F /  9.9 °C 29.7in /  1007.1hPa ENE 2mph /  3.2km/h 3mph /  4.8km/h 95% 0.01in /  0.2mm 0 W/m2
04:37 51.8 °F /  11 °C 50.4 °F /  10.2 °C 29.7in /  1007.1hPa NE 2mph /  3.2km/h 4mph /  6.4km/h 95% 0.02in /  0.5mm 0 W/m2
04:42 52.7 °F /  11.5 °C 50.7 °F /  10.4 °C 29.7in /  1007.1hPa North 2mph /  3.2km/h 5mph /  8km/h 93% 0.02in /  0.5mm 0 W/m2
04:47 53.4 °F /  11.9 °C 50.5 °F /  10.3 °C 29.7in /  1007.1hPa ESE 2mph /  3.2km/h 4mph /  6.4km/h 90% 0.02in /  0.5mm 0 W/m2
04:52 54 °F /  12.2 °C 50.5 °F /  10.3 °C 29.7in /  1007.1hPa NNE 0.9mph /  1.4km/h 3mph /  4.8km/h 88% 0.02in /  0.5mm 0 W/m2
04:57 54.1 °F /  12.3 °C 50.4 °F /  10.2 °C 29.7in /  1007.1hPa ENE 2mph /  3.2km/h 3mph /  4.8km/h 87% 0.02in /  0.5mm 0 W/m2
05:02 54.1 °F /  12.3 °C 50.4 °F /  10.2 °C 29.7in /  1006.8hPa NNE 4mph /  6.4km/h 4mph /  6.4km/h 87% 0.02in /  0.5mm 0 W/m2
05:07 54 °F /  12.2 °C 50.2 °F /  10.1 °C 29.7in /  1006.4hPa ENE 0.9mph /  1.4km/h 2mph /  3.2km/h 87% 0.04in /  1.0mm 0 W/m2
05:12 53.8 °F /  12.1 °C 50.4 °F /  10.2 °C 29.7in /  1006.4hPa Calm   2mph /  3.2km/h 88% 0.05in /  1.3mm 0 W/m2
05:17 53.4 °F /  11.9 °C 50.5 °F /  10.3 °C 29.7in /  1006.4hPa Calm   2mph /  3.2km/h 90% 0.05in /  1.3mm 0 W/m2
05:22 53.2 °F /  11.8 °C 50.4 °F /  10.2 °C 29.7in /  1006.4hPa ENE 0.9mph /  1.4km/h 3mph /  4.8km/h 90% 0.05in /  1.3mm 0 W/m2
05:32 52.5 °F /  11.4 °C 50.2 °F /  10.1 °C 29.7in /  1006.4hPa Calm   3mph /  4.8km/h 92% 0.05in /  1.3mm 0 W/m2
05:37 52.3 °F /  11.3 °C 50 °F /  10 °C 29.7in /  1006.4hPa Calm     92% 0.04in /  1.0mm 0 W/m2
05:42 52.2 °F /  11.2 °C 49.8 °F /  9.9 °C 29.7in /  1006.4hPa Calm     92% 0.05in /  1.3mm 0 W/m2
05:47 52.2 °F /  11.2 °C 50.2 °F /  10.1 °C 29.7in /  1006.4hPa Calm     93% 0.05in /  1.3mm 0 W/m2
05:52 52 °F /  11.1 °C 50 °F /  10 °C 29.7in /  1006.4hPa Calm     93% 0.04in /  1.0mm 0 W/m2
05:57 51.8 °F /  11 °C 49.8 °F /  9.9 °C 29.7in /  1006.4hPa Calm     93% 0.04in /  1.0mm 0 W/m2
06:02 51.6 °F /  10.9 °C 50 °F /  10 °C 29.7in /  1006.4hPa Calm     94% 0.03in /  0.8mm 0 W/m2
06:07 51.4 °F /  10.8 °C 49.8 °F /  9.9 °C 29.7in /  1006.4hPa Calm     94% 0.02in /  0.5mm 0 W/m2
06:12 51.4 °F /  10.8 °C 49.8 °F /  9.9 °C 29.7in /  1006.4hPa Calm     94% 0.02in /  0.5mm 0 W/m2
06:17 51.4 °F /  10.8 °C 49.8 °F /  9.9 °C 29.7in /  1006.1hPa Calm     94% 0.02in /  0.5mm 0 W/m2
06:22 51.3 °F /  10.7 °C 49.6 °F /  9.8 °C 29.7in /  1006.1hPa Calm     94% 0.02in /  0.5mm 0 W/m2
06:27 51.3 °F /  10.7 °C 49.8 °F /  9.9 °C 29.7in /  1006.1hPa Calm     95% 0.02in /  0.5mm 0 W/m2
06:32 51.3 °F /  10.7 °C 49.8 °F /  9.9 °C 29.7in /  1006.1hPa Calm     95% 0.02in /  0.5mm 0 W/m2
06:37 51.3 °F /  10.7 °C 49.8 °F /  9.9 °C 29.7in /  1006.1hPa Calm     95% 0.02in /  0.5mm 0 W/m2
06:42 51.3 °F /  10.7 °C 49.8 °F /  9.9 °C 29.7in /  1006.1hPa Calm     95% 0.02in /  0.5mm 0 W/m2
06:47 51.3 °F /  10.7 °C 49.8 °F /  9.9 °C 29.7in /  1006.1hPa Calm     95% 0.02in /  0.5mm 0 W/m2
06:52 51.3 °F /  10.7 °C 49.8 °F /  9.9 °C 29.7in /  1005.8hPa ENE 0.9mph /  1.4km/h 2mph /  3.2km/h 95% 0.02in /  0.5mm 0 W/m2
06:57 51.3 °F /  10.7 °C 49.8 °F /  9.9 °C 29.7in /  1005.8hPa Calm     95% 0.02in /  0.5mm 0 W/m2
07:02 51.1 °F /  10.6 °C 49.6 °F /  9.8 °C 29.7in /  1005.8hPa Calm   2mph /  3.2km/h 95% 0.02in /  0.5mm 0 W/m2
07:07 51.1 °F /  10.6 °C 49.6 °F /  9.8 °C 29.7in /  1005.8hPa Calm     95% 0.02in /  0.5mm 0 W/m2
07:12 51.1 °F /  10.6 °C 49.6 °F /  9.8 °C 29.7in /  1005.8hPa Calm     95% 0.01in /  0.2mm 0 W/m2
07:17 50.9 °F /  10.5 °C 49.5 °F /  9.7 °C 29.7in /  1005.8hPa Calm     95% 0.01in /  0.2mm 0 W/m2
07:22 50.9 °F /  10.5 °C 49.5 °F /  9.7 °C 29.7in /  1005.8hPa Calm     95% 0.01in /  0.2mm 0 W/m2
07:27 50.7 °F /  10.4 °C 49.6 °F /  9.8 °C 29.7in /  1005.8hPa Calm     96% 0.01in /  0.2mm 0 W/m2
07:32 50.7 °F /  10.4 °C 49.3 °F /  9.6 °C 29.7in /  1005.8hPa Calm     95% 0in /  0.0mm 0 W/m2
07:37 50.5 °F /  10.3 °C 49.1 °F /  9.5 °C 29.7in /  1005.8hPa Calm     95% 0in /  0.0mm 0 W/m2
07:42 50.5 °F /  10.3 °C 49.1 °F /  9.5 °C 29.7in /  1005.8hPa Calm   1mph /  1.6km/h 95% 0in /  0.0mm 0 W/m2
07:47 50.4 °F /  10.2 °C 49.3 °F /  9.6 °C 29.7in /  1005.8hPa Calm     96% 0in /  0.0mm 0 W/m2
07:52 50.4 °F /  10.2 °C 49.3 °F /  9.6 °C 29.7in /  1005.8hPa Calm   1mph /  1.6km/h 96% 0in /  0.0mm 0 W/m2
07:57 50.4 °F /  10.2 °C 49.3 °F /  9.6 °C 29.7in /  1005.8hPa Calm     96% 0in /  0.0mm 0 W/m2
08:02 50.4 °F /  10.2 °C 49.3 °F /  9.6 °C 29.7in /  1005.8hPa Calm     96% 0in /  0.0mm 0 W/m2
08:07 50.4 °F /  10.2 °C 49.3 °F /  9.6 °C 29.7in /  1005.8hPa Calm     96% 0in /  0.0mm 0 W/m2
08:12 50.4 °F /  10.2 °C 49.3 °F /  9.6 °C 29.7in /  1006.1hPa Calm     96% 0in /  0.0mm 0 W/m2
08:17 50.4 °F /  10.2 °C 49.3 °F /  9.6 °C 29.7in /  1006.1hPa Calm     96% 0.01in /  0.2mm 0 W/m2
08:22 50.4 °F /  10.2 °C 49.3 °F /  9.6 °C 29.7in /  1006.1hPa Calm     96% 0.01in /  0.2mm 5 W/m2
08:27 50.4 °F /  10.2 °C 49.3 °F /  9.6 °C 29.7in /  1005.8hPa Calm     96% 0.01in /  0.2mm 9 W/m2
08:32 50.5 °F /  10.3 °C 49.5 °F /  9.7 °C 29.7in /  1005.8hPa Calm     96% 0.01in /  0.2mm 14 W/m2
08:37 50.5 °F /  10.3 °C 49.5 °F /  9.7 °C 29.7in /  1006.1hPa Calm     96% 0.01in /  0.2mm 19 W/m2
08:42 50.5 °F /  10.3 °C 49.5 °F /  9.7 °C 29.7in /  1005.8hPa Calm     96% 0.01in /  0.2mm 21 W/m2
08:47 50.5 °F /  10.3 °C 49.5 °F /  9.7 °C 29.7in /  1006.1hPa Calm     96% 0.01in /  0.2mm 25 W/m2
08:52 50.5 °F /  10.3 °C 49.5 °F /  9.7 °C 29.7in /  1006.1hPa Calm     96% 0.01in /  0.2mm 25 W/m2
08:57 50.5 °F /  10.3 °C 49.5 °F /  9.7 °C 29.7in /  1006.1hPa Calm     96% 0.01in /  0.2mm 19 W/m2
09:02 50.5 °F /  10.3 °C 49.5 °F /  9.7 °C 29.7in /  1006.1hPa Calm     96% 0.01in /  0.2mm 33 W/m2
09:07 50.5 °F /  10.3 °C 49.5 °F /  9.7 °C 29.7in /  1006.1hPa Calm     96% 0.01in /  0.2mm 26 W/m2
09:12 50.5 °F /  10.3 °C 49.5 °F /  9.7 °C 29.7in /  1006.1hPa Calm     96% 0.01in /  0.2mm 25 W/m2
09:17 50.7 °F /  10.4 °C 49.6 °F /  9.8 °C 29.7in /  1006.4hPa Calm     96% 0in /  0.0mm 26 W/m2
09:22 50.7 °F /  10.4 °C 49.6 °F /  9.8 °C 29.7in /  1006.1hPa Calm     96% 0in /  0.0mm 19 W/m2
09:27 50.9 °F /  10.5 °C 49.8 °F /  9.9 °C 29.7in /  1006.1hPa NW 2mph /  3.2km/h 2mph /  3.2km/h 96% 0in /  0.0mm 32 W/m2
09:32 50.9 °F /  10.5 °C 49.8 °F /  9.9 °C 29.7in /  1006.4hPa West 0.9mph /  1.4km/h 1mph /  1.6km/h 96% 0in /  0.0mm 44 W/m2
09:37 50.9 °F /  10.5 °C 49.8 °F /  9.9 °C 29.7in /  1006.4hPa Calm   1mph /  1.6km/h 96% 0in /  0.0mm 32 W/m2
09:42 51.1 °F /  10.6 °C 50 °F /  10 °C 29.7in /  1006.4hPa Calm   1mph /  1.6km/h 96% 0in /  0.0mm 30 W/m2
09:47 51.1 °F /  10.6 °C 50 °F /  10 °C 29.7in /  1006.4hPa Calm     96% 0in /  0.0mm 28 W/m2
09:52 51.1 °F /  10.6 °C 50 °F /  10 °C 29.7in /  1006.4hPa Calm   2mph /  3.2km/h 96% 0in /  0.0mm 26 W/m2
09:57 51.1 °F /  10.6 °C 50 °F /  10 °C 29.7in /  1006.4hPa Calm     96% 0in /  0.0mm 39 W/m2
10:02 51.1 °F /  10.6 °C 50 °F /  10 °C 29.7in /  1006.4hPa Calm   2mph /  3.2km/h 96% 0in /  0.0mm 58 W/m2
10:07 51.3 °F /  10.7 °C 50.2 °F /  10.1 °C 29.7in /  1006.4hPa Calm     96% 0in /  0.0mm 74 W/m2
10:12 51.3 °F /  10.7 °C 50.4 °F /  10.2 °C 29.7in /  1006.4hPa Calm   1mph /  1.6km/h 97% 0in /  0.0mm 76 W/m2
10:17 51.4 °F /  10.8 °C 50.5 °F /  10.3 °C 29.7in /  1006.4hPa Calm     97% 0in /  0.0mm 74 W/m2
10:22 51.4 °F /  10.8 °C 50.5 °F /  10.3 °C 29.7in /  1006.1hPa Calm   1mph /  1.6km/h 97% 0in /  0.0mm 84 W/m2
10:27 51.8 °F /  11 °C 50.9 °F /  10.5 °C 29.7in /  1006.1hPa Calm     97% 0in /  0.0mm 127 W/m2
10:32 52 °F /  11.1 °C 51.1 °F /  10.6 °C 29.7in /  1006.1hPa Calm   1mph /  1.6km/h 97% 0in /  0.0mm 114 W/m2
10:37 52.2 °F /  11.2 °C 51.3 °F /  10.7 °C 29.7in /  1006.1hPa Calm     97% 0in /  0.0mm 113 W/m2
10:42 52.3 °F /  11.3 °C 51.4 °F /  10.8 °C 29.7in /  1006.1hPa Calm     97% 0in /  0.0mm 120 W/m2
10:47 52.7 °F /  11.5 °C 51.8 °F /  11 °C 29.7in /  1006.1hPa Calm     97% 0in /  0.0mm 95 W/m2
10:52 53.1 °F /  11.7 °C 52.2 °F /  11.2 °C 29.7in /  1006.1hPa Calm     97% 0in /  0.0mm 84 W/m2
10:57 53.2 °F /  11.8 °C 52.3 °F /  11.3 °C 29.7in /  1005.8hPa Calm     97% 0in /  0.0mm 95 W/m2
11:02 53.4 °F /  11.9 °C 52.5 °F /  11.4 °C 29.7in /  1005.8hPa Calm     97% 0in /  0.0mm 81 W/m2
11:07 53.6 °F /  12 °C 52.7 °F /  11.5 °C 29.7in /  1005.8hPa Calm     97% 0in /  0.0mm 114 W/m2
11:12 53.8 °F /  12.1 °C 52.9 °F /  11.6 °C 29.7in /  1005.8hPa West 0.9mph /  1.4km/h 2mph /  3.2km/h 97% 0in /  0.0mm 151 W/m2
11:17 54 °F /  12.2 °C 52.9 °F /  11.6 °C 29.7in /  1005.8hPa ENE 2mph /  3.2km/h 2mph /  3.2km/h 96% 0in /  0.0mm 135 W/m2
11:22 54.1 °F /  12.3 °C 53.2 °F /  11.8 °C 29.7in /  1005.8hPa NE 0.9mph /  1.4km/h 2mph /  3.2km/h 97% 0in /  0.0mm 109 W/m2
11:28 54.7 °F /  12.6 °C 53.6 °F /  12 °C 29.7in /  1005.8hPa NNW 0.9mph /  1.4km/h 2mph /  3.2km/h 96% 0in /  0.0mm 97 W/m2
11:33 55 °F /  12.8 °C 54 °F /  12.2 °C 29.7in /  1005.8hPa NW 0.9mph /  1.4km/h 9mph /  14.5km/h 96% 0in /  0.0mm 79 W/m2
11:38 56.3 °F /  13.5 °C 54.9 °F /  12.7 °C 29.7in /  1005.8hPa NE 2.9mph /  4.7km/h 5mph /  8km/h 95% 0in /  0.0mm 72 W/m2
11:43 57.7 °F /  14.3 °C 55.2 °F /  12.9 °C 29.7in /  1005.4hPa ESE 8.9mph /  14.3km/h 11mph /  17.7km/h 91% 0in /  0.0mm 53 W/m2
11:48 59.5 °F /  15.3 °C 53.8 °F /  12.1 °C 29.7in /  1005.8hPa Calm   5mph /  8km/h 81% 0in /  0.0mm 70 W/m2
11:53 61.2 °F /  16.2 °C 53.2 °F /  11.8 °C 29.7in /  1005.8hPa NW 4mph /  6.4km/h 4mph /  6.4km/h 75% 0in /  0.0mm 132 W/m2
11:58 62.1 °F /  16.7 °C 53.6 °F /  12 °C 29.7in /  1005.8hPa NNE 0.9mph /  1.4km/h 4mph /  6.4km/h 74% 0in /  0.0mm 139 W/m2
12:03 62.6 °F /  17 °C 52.7 °F /  11.5 °C 29.7in /  1005.4hPa NNW 4mph /  6.4km/h 7mph /  11.3km/h 70% 0in /  0.0mm 141 W/m2
12:08 63.1 °F /  17.3 °C 52.3 °F /  11.3 °C 29.7in /  1005.8hPa NNW 0.9mph /  1.4km/h 6mph /  9.7km/h 68% 0in /  0.0mm 197 W/m2
12:13 63.9 °F /  17.7 °C 52.7 °F /  11.5 °C 29.7in /  1005.8hPa NNE 2.9mph /  4.7km/h 4mph /  6.4km/h 67% 0in /  0.0mm 197 W/m2
12:18 64.2 °F /  17.9 °C 52.2 °F /  11.2 °C 29.7in /  1005.8hPa ENE 4mph /  6.4km/h 5mph /  8km/h 65% 0in /  0.0mm 172 W/m2
12:23 64.8 °F /  18.2 °C 52.7 °F /  11.5 °C 29.7in /  1005.8hPa NNE 2mph /  3.2km/h 8mph /  12.9km/h 65% 0in /  0.0mm 192 W/m2
12:28 64.9 °F /  18.3 °C 51.6 °F /  10.9 °C 29.7in /  1005.8hPa East 2mph /  3.2km/h 8mph /  12.9km/h 62% 0in /  0.0mm 204 W/m2
12:33 65.3 °F /  18.5 °C 52 °F /  11.1 °C 29.7in /  1005.8hPa NW 0.9mph /  1.4km/h 6mph /  9.7km/h 62% 0in /  0.0mm 223 W/m2
12:38 65.7 °F /  18.7 °C 52.7 °F /  11.5 °C 29.7in /  1005.8hPa NW 2mph /  3.2km/h 5mph /  8km/h 63% 0in /  0.0mm 229 W/m2
12:43 65.8 °F /  18.8 °C 52.5 °F /  11.4 °C 29.7in /  1005.8hPa NNW 4.9mph /  7.9km/h 9mph /  14.5km/h 62% 0in /  0.0mm 290 W/m2
12:48 66 °F /  18.9 °C 52.7 °F /  11.5 °C 29.7in /  1005.8hPa Calm   6mph /  9.7km/h 62% 0in /  0.0mm 330 W/m2
12:53 66.6 °F /  19.2 °C 52.7 °F /  11.5 °C 29.7in /  1005.8hPa NNW 4mph /  6.4km/h 5mph /  8km/h 61% 0in /  0.0mm 244 W/m2
12:58 66.7 °F /  19.3 °C 52.9 °F /  11.6 °C 29.7in /  1005.8hPa WNW 0.9mph /  1.4km/h 9mph /  14.5km/h 61% 0in /  0.0mm 183 W/m2
13:03 66.7 °F /  19.3 °C 52.3 °F /  11.3 °C 29.7in /  1005.8hPa SSW 2.9mph /  4.7km/h 15mph /  24.1km/h 60% 0in /  0.0mm 151 W/m2
13:08 66.7 °F /  19.3 °C 52.3 °F /  11.3 °C 29.7in /  1005.8hPa East 0.9mph /  1.4km/h 5mph /  8km/h 60% 0in /  0.0mm 246 W/m2
13:13 66.9 °F /  19.4 °C 53.1 °F /  11.7 °C 29.7in /  1005.8hPa WSW 2mph /  3.2km/h 8mph /  12.9km/h 61% 0in /  0.0mm 267 W/m2
13:18 67.3 °F /  19.6 °C 52.5 °F /  11.4 °C 29.7in /  1005.4hPa WNW 0.9mph /  1.4km/h 10mph /  16.1km/h 59% 0in /  0.0mm 246 W/m2
13:23 67.5 °F /  19.7 °C 52.7 °F /  11.5 °C 29.7in /  1005.4hPa NW 2.9mph /  4.7km/h 9mph /  14.5km/h 59% 0in /  0.0mm 142 W/m2
13:28 67.5 °F /  19.7 °C 52.2 °F /  11.2 °C 29.7in /  1005.1hPa SSW 2.9mph /  4.7km/h 12mph /  19.3km/h 58% 0in /  0.0mm 148 W/m2
13:33 67.3 °F /  19.6 °C 52.5 °F /  11.4 °C 29.7in /  1005.4hPa ENE 2.9mph /  4.7km/h 7mph /  11.3km/h 59% 0in /  0.0mm 151 W/m2
13:38 67.5 °F /  19.7 °C 52.7 °F /  11.5 °C 29.7in /  1005.4hPa Calm   12mph /  19.3km/h 59% 0in /  0.0mm 120 W/m2
13:43 67.6 °F /  19.8 °C 52.9 °F /  11.6 °C 29.7in /  1005.4hPa NW 4mph /  6.4km/h 10mph /  16.1km/h 59% 0in /  0.0mm 102 W/m2
13:48 68.2 °F /  20.1 °C 53.2 °F /  11.8 °C 29.7in /  1005.4hPa ENE 0.9mph /  1.4km/h 4mph /  6.4km/h 59% 0in /  0.0mm 107 W/m2
13:53 68.5 °F /  20.3 °C 53.6 °F /  12 °C 29.7in /  1005.1hPa North 2.9mph /  4.7km/h 10mph /  16.1km/h 59% 0in /  0.0mm 102 W/m2
13:58 69.1 °F /  20.6 °C 53.6 °F /  12 °C 29.7in /  1005.1hPa NNE 2.9mph /  4.7km/h 10mph /  16.1km/h 58% 0in /  0.0mm 128 W/m2
14:03 69.4 °F /  20.8 °C 53.6 °F /  12 °C 29.7in /  1005.1hPa NNE 4.9mph /  7.9km/h 8mph /  12.9km/h 57% 0in /  0.0mm 130 W/m2
14:08 69.6 °F /  20.9 °C 53.8 °F /  12.1 °C 29.7in /  1005.1hPa NE 2.9mph /  4.7km/h 9mph /  14.5km/h 57% 0in /  0.0mm 142 W/m2
14:13 70 °F /  21.1 °C 54 °F /  12.2 °C 29.7in /  1005.1hPa NW 4mph /  6.4km/h 7mph /  11.3km/h 57% 0in /  0.0mm 118 W/m2
14:18 70.2 °F /  21.2 °C 54.1 °F /  12.3 °C 29.7in /  1005.1hPa NW 2.9mph /  4.7km/h 8mph /  12.9km/h 57% 0in /  0.0mm 134 W/m2
14:23 70.3 °F /  21.3 °C 54 °F /  12.2 °C 29.7in /  1005.1hPa NNW 4.9mph /  7.9km/h 7mph /  11.3km/h 56% 0in /  0.0mm 113 W/m2
14:28 70.3 °F /  21.3 °C 54.3 °F /  12.4 °C 29.7in /  1005.1hPa North 4.9mph /  7.9km/h 6mph /  9.7km/h 57% 0in /  0.0mm 91 W/m2
14:33 70.3 °F /  21.3 °C 54 °F /  12.2 °C 29.7in /  1005.1hPa NW 4mph /  6.4km/h 9mph /  14.5km/h 56% 0in /  0.0mm 83 W/m2
14:38 70.3 °F /  21.3 °C 54 °F /  12.2 °C 29.7in /  1005.1hPa NNW 2.9mph /  4.7km/h 6mph /  9.7km/h 56% 0in /  0.0mm 74 W/m2
14:44 70.3 °F /  21.3 °C 54 °F /  12.2 °C 29.7in /  1005.1hPa NNW 4.9mph /  7.9km/h 6mph /  9.7km/h 56% 0in /  0.0mm 79 W/m2
14:49 70.3 °F /  21.3 °C 54 °F /  12.2 °C 29.7in /  1005.1hPa NNE 4mph /  6.4km/h 9mph /  14.5km/h 56% 0in /  0.0mm 63 W/m2
14:54 70.3 °F /  21.3 °C 54 °F /  12.2 °C 29.7in /  1005.1hPa NNE 4mph /  6.4km/h 9mph /  14.5km/h 56% 0in /  0.0mm 58 W/m2
14:59 70.5 °F /  21.4 °C 54.1 °F /  12.3 °C 29.7in /  1005.1hPa NW 8.1mph /  13km/h 10mph /  16.1km/h 56% 0in /  0.0mm 56 W/m2
15:04 70.9 °F /  21.6 °C 54.3 °F /  12.4 °C 29.7in /  1005.1hPa West 2.9mph /  4.7km/h 10mph /  16.1km/h 56% 0in /  0.0mm 54 W/m2
15:09 70.9 °F /  21.6 °C 54 °F /  12.2 °C 29.7in /  1005.1hPa NE 0.9mph /  1.4km/h 12mph /  19.3km/h 55% 0in /  0.0mm 53 W/m2
15:14 70.9 °F /  21.6 °C 54.3 °F /  12.4 °C 29.7in /  1005.1hPa North 2.9mph /  4.7km/h 16mph /  25.7km/h 56% 0in /  0.0mm 53 W/m2
15:19 71.1 °F /  21.7 °C 54.5 °F /  12.5 °C 29.7in /  1005.1hPa NW 2.9mph /  4.7km/h 9mph /  14.5km/h 56% 0in /  0.0mm 51 W/m2
15:24 71.2 °F /  21.8 °C 54.3 °F /  12.4 °C 29.7in /  1005.1hPa ENE 2mph /  3.2km/h 7mph /  11.3km/h 55% 0in /  0.0mm 58 W/m2
15:29 71.2 °F /  21.8 °C 54.3 °F /  12.4 °C 29.7in /  1005.1hPa East 2mph /  3.2km/h 11mph /  17.7km/h 55% 0in /  0.0mm 53 W/m2
15:34 71.4 °F /  21.9 °C 54.5 °F /  12.5 °C 29.7in /  1004.7hPa ENE 2.9mph /  4.7km/h 7mph /  11.3km/h 55% 0in /  0.0mm 60 W/m2
15:39 71.4 °F /  21.9 °C 54.5 °F /  12.5 °C 29.7in /  1004.7hPa North 2mph /  3.2km/h 4mph /  6.4km/h 55% 0in /  0.0mm 63 W/m2
15:44 71.8 °F /  22.1 °C 54.7 °F /  12.6 °C 29.7in /  1004.7hPa NW 4.9mph /  7.9km/h 5mph /  8km/h 55% 0in /  0.0mm 91 W/m2
15:49 71.8 °F /  22.1 °C 54.7 °F /  12.6 °C 29.7in /  1004.7hPa WNW 2.9mph /  4.7km/h 5mph /  8km/h 55% 0in /  0.0mm 70 W/m2
15:54 71.8 °F /  22.1 °C 54.7 °F /  12.6 °C 29.7in /  1005.1hPa NNW 0.9mph /  1.4km/h 5mph /  8km/h 55% 0in /  0.0mm 62 W/m2
15:59 71.8 °F /  22.1 °C 54.7 °F /  12.6 °C 29.7in /  1005.1hPa NE 2.9mph /  4.7km/h 10mph /  16.1km/h 55% 0in /  0.0mm 76 W/m2
16:04 71.4 °F /  21.9 °C 54.5 °F /  12.5 °C 29.7in /  1005.1hPa NE 0.9mph /  1.4km/h 8mph /  12.9km/h 55% 0in /  0.0mm 84 W/m2
16:09 71.2 °F /  21.8 °C 54.7 °F /  12.6 °C 29.7in /  1005.1hPa NE 2.9mph /  4.7km/h 4mph /  6.4km/h 56% 0in /  0.0mm 97 W/m2
16:14 71.1 °F /  21.7 °C 54.5 °F /  12.5 °C 29.7in /  1005.1hPa NNW 2mph /  3.2km/h 6mph /  9.7km/h 56% 0in /  0.0mm 53 W/m2
16:19 70.7 °F /  21.5 °C 54.7 °F /  12.6 °C 29.7in /  1005.4hPa SSW 0.9mph /  1.4km/h 3mph /  4.8km/h 57% 0in /  0.0mm 84 W/m2
16:24 70.3 °F /  21.3 °C 54.3 °F /  12.4 °C 29.7in /  1005.1hPa NNW 2mph /  3.2km/h 4mph /  6.4km/h 57% 0in /  0.0mm 70 W/m2
16:29 70.2 °F /  21.2 °C 54.1 °F /  12.3 °C 29.7in /  1005.4hPa NE 4mph /  6.4km/h 8mph /  12.9km/h 57% 0in /  0.0mm 102 W/m2
16:34 70.2 °F /  21.2 °C 54.1 °F /  12.3 °C 29.7in /  1005.4hPa WNW 6mph /  9.7km/h 10mph /  16.1km/h 57% 0in /  0.0mm 67 W/m2
16:39 70.2 °F /  21.2 °C 54.1 °F /  12.3 °C 29.7in /  1005.4hPa NNE 2mph /  3.2km/h 5mph /  8km/h 57% 0in /  0.0mm 53 W/m2
16:44 70 °F /  21.1 °C 54.5 °F /  12.5 °C 29.7in /  1005.4hPa NW 2.9mph /  4.7km/h 5mph /  8km/h 58% 0in /  0.0mm 53 W/m2
16:49 69.8 °F /  21 °C 54.3 °F /  12.4 °C 29.7in /  1005.1hPa NW 2.9mph /  4.7km/h 8mph /  12.9km/h 58% 0in /  0.0mm 51 W/m2
16:54 69.8 °F /  21 °C 54.3 °F /  12.4 °C 29.7in /  1005.4hPa NNW 2.9mph /  4.7km/h 10mph /  16.1km/h 58% 0in /  0.0mm 56 W/m2
16:59 69.6 °F /  20.9 °C 54.1 °F /  12.3 °C 29.7in /  1005.4hPa NNW 4mph /  6.4km/h 5mph /  8km/h 58% 0in /  0.0mm 40 W/m2
17:04 69.8 °F /  21 °C 54.3 °F /  12.4 °C 29.7in /  1005.4hPa ENE 2.9mph /  4.7km/h 10mph /  16.1km/h 58% 0in /  0.0mm 72 W/m2
17:10 70 °F /  21.1 °C 54.5 °F /  12.5 °C 29.7in /  1005.4hPa North 0.9mph /  1.4km/h 3mph /  4.8km/h 58% 0in /  0.0mm 40 W/m2
17:15 69.8 °F /  21 °C 54.3 °F /  12.4 °C 29.7in /  1005.4hPa East 4mph /  6.4km/h 10mph /  16.1km/h 58% 0in /  0.0mm 63 W/m2
17:20 69.6 °F /  20.9 °C 54.7 °F /  12.6 °C 29.7in /  1005.4hPa ESE 4mph /  6.4km/h 4mph /  6.4km/h 59% 0in /  0.0mm 49 W/m2
17:25 70 °F /  21.1 °C 54.5 °F /  12.5 °C 29.7in /  1005.8hPa WNW 2mph /  3.2km/h 3mph /  4.8km/h 58% 0in /  0.0mm 40 W/m2
17:30 70 °F /  21.1 °C 55 °F /  12.8 °C 29.7in /  1005.8hPa NW 4mph /  6.4km/h 4mph /  6.4km/h 59% 0in /  0.0mm 35 W/m2
17:35 70 °F /  21.1 °C 54.5 °F /  12.5 °C 29.7in /  1005.8hPa West 0.9mph /  1.4km/h 4mph /  6.4km/h 58% 0in /  0.0mm 26 W/m2
17:40 69.6 °F /  20.9 °C 54.7 °F /  12.6 °C 29.7in /  1005.8hPa ENE 2.9mph /  4.7km/h 5mph /  8km/h 59% 0in /  0.0mm 28 W/m2
17:45 69.6 °F /  20.9 °C 54.7 °F /  12.6 °C 29.7in /  1005.8hPa NE 6mph /  9.7km/h 6mph /  9.7km/h 59% 0in /  0.0mm 26 W/m2
17:50 69.4 °F /  20.8 °C 54.5 °F /  12.5 °C 29.7in /  1005.8hPa SSW 2mph /  3.2km/h 4mph /  6.4km/h 59% 0in /  0.0mm 23 W/m2
17:55 69.4 °F /  20.8 °C 54.5 °F /  12.5 °C 29.7in /  1005.8hPa West 2mph /  3.2km/h 8mph /  12.9km/h 59% 0in /  0.0mm 23 W/m2
18:00 69.4 °F /  20.8 °C 54.9 °F /  12.7 °C 29.7in /  1005.8hPa Calm   4mph /  6.4km/h 60% 0in /  0.0mm 18 W/m2
18:05 69.3 °F /  20.7 °C 54.9 °F /  12.7 °C 29.7in /  1006.1hPa NE 2mph /  3.2km/h 4mph /  6.4km/h 60% 0in /  0.0mm 19 W/m2
18:10 69.1 °F /  20.6 °C 54.7 °F /  12.6 °C 29.7in /  1006.1hPa SSE 4mph /  6.4km/h 4mph /  6.4km/h 60% 0in /  0.0mm 11 W/m2
18:15 68.7 °F /  20.4 °C 54.7 °F /  12.6 °C 29.7in /  1006.1hPa North 2mph /  3.2km/h 3mph /  4.8km/h 61% 0in /  0.0mm 11 W/m2
18:20 68.5 °F /  20.3 °C 55 °F /  12.8 °C 29.7in /  1006.1hPa Calm   2mph /  3.2km/h 62% 0in /  0.0mm 7 W/m2
18:25 68.2 °F /  20.1 °C 55.6 °F /  13.1 °C 29.7in /  1006.4hPa ESE 0.9mph /  1.4km/h 1mph /  1.6km/h 64% 0in /  0.0mm 5 W/m2
18:30 67.5 °F /  19.7 °C 55.2 °F /  12.9 °C 29.7in /  1006.4hPa ENE 0.9mph /  1.4km/h 2mph /  3.2km/h 65% 0in /  0.0mm 0 W/m2
18:35 66.7 °F /  19.3 °C 55.8 °F /  13.2 °C 29.7in /  1006.4hPa South 0.9mph /  1.4km/h 1mph /  1.6km/h 68% 0in /  0.0mm 0 W/m2
18:40 66.2 °F /  19 °C 55.8 °F /  13.2 °C 29.7in /  1006.4hPa South 0.9mph /  1.4km/h 1mph /  1.6km/h 69% 0in /  0.0mm 0 W/m2
18:45 65.7 °F /  18.7 °C 55.9 °F /  13.3 °C 29.7in /  1006.4hPa South 0.9mph /  1.4km/h 2mph /  3.2km/h 71% 0in /  0.0mm 0 W/m2
18:50 65.1 °F /  18.4 °C 55.4 °F /  13 °C 29.7in /  1006.4hPa NW 0.9mph /  1.4km/h 1mph /  1.6km/h 71% 0in /  0.0mm 0 W/m2
18:55 64.8 °F /  18.2 °C 55.6 °F /  13.1 °C 29.7in /  1006.8hPa West 0.9mph /  1.4km/h 2mph /  3.2km/h 72% 0in /  0.0mm 0 W/m2
19:00 64.6 °F /  18.1 °C 55.8 °F /  13.2 °C 29.7in /  1006.8hPa Calm     73% 0in /  0.0mm 0 W/m2
19:05 64.2 °F /  17.9 °C 55.8 °F /  13.2 °C 29.7in /  1007.1hPa Calm   1mph /  1.6km/h 74% 0in /  0.0mm 0 W/m2
19:10 63.9 °F /  17.7 °C 55.8 °F /  13.2 °C 29.7in /  1007.1hPa SSE 2mph /  3.2km/h 4mph /  6.4km/h 75% 0in /  0.0mm 0 W/m2
19:15 63.9 °F /  17.7 °C 55 °F /  12.8 °C 29.7in /  1007.1hPa Calm   4mph /  6.4km/h 73% 0in /  0.0mm 0 W/m2
19:20 64.2 °F /  17.9 °C 54.7 °F /  12.6 °C 29.7in /  1007.1hPa NW 2.9mph /  4.7km/h 6mph /  9.7km/h 71% 0in /  0.0mm 0 W/m2
19:25 64.9 °F /  18.3 °C 54.5 °F /  12.5 °C 29.7in /  1007.1hPa NNW 2mph /  3.2km/h 3mph /  4.8km/h 69% 0in /  0.0mm 0 W/m2
19:30 65.8 °F /  18.8 °C 55 °F /  12.8 °C 29.8in /  1007.5hPa North 4.9mph /  7.9km/h 5mph /  8km/h 68% 0in /  0.0mm 0 W/m2
19:35 66.4 °F /  19.1 °C 55 °F /  12.8 °C 29.8in /  1007.5hPa SE 2.9mph /  4.7km/h 3mph /  4.8km/h 67% 0in /  0.0mm 0 W/m2
19:40 66.4 °F /  19.1 °C 55.6 °F /  13.1 °C 29.8in /  1007.5hPa SSW 0.9mph /  1.4km/h 1mph /  1.6km/h 68% 0in /  0.0mm 0 W/m2
19:45 65.8 °F /  18.8 °C 55 °F /  12.8 °C 29.8in /  1007.5hPa SSW 2mph /  3.2km/h 2mph /  3.2km/h 68% 0in /  0.0mm 0 W/m2
19:50 65.1 °F /  18.4 °C 55 °F /  12.8 °C 29.8in /  1007.5hPa SSW 2mph /  3.2km/h 2mph /  3.2km/h 70% 0in /  0.0mm 0 W/m2
19:55 64.6 °F /  18.1 °C 55.4 °F /  13 °C 29.8in /  1007.5hPa SSE 0.9mph /  1.4km/h 1mph /  1.6km/h 72% 0in /  0.0mm 0 W/m2
20:00 64 °F /  17.8 °C 55.2 °F /  12.9 °C 29.8in /  1007.8hPa SSE 0.9mph /  1.4km/h 1mph /  1.6km/h 73% 0in /  0.0mm 0 W/m2
20:05 63.3 °F /  17.4 °C 55.2 °F /  12.9 °C 29.8in /  1008.1hPa Calm   1mph /  1.6km/h 75% 0in /  0.0mm 0 W/m2
20:10 62.8 °F /  17.1 °C 55 °F /  12.8 °C 29.8in /  1008.1hPa Calm   1mph /  1.6km/h 76% 0in /  0.0mm 0 W/m2
20:15 62.2 °F /  16.8 °C 55.2 °F /  12.9 °C 29.8in /  1008.1hPa Calm   2mph /  3.2km/h 78% 0in /  0.0mm 0 W/m2
20:20 61.9 °F /  16.6 °C 55.2 °F /  12.9 °C 29.8in /  1008.5hPa NNE 0.9mph /  1.4km/h 2mph /  3.2km/h 79% 0in /  0.0mm 0 W/m2
20:25 61.7 °F /  16.5 °C 55.4 °F /  13 °C 29.8in /  1008.5hPa Calm     80% 0in /  0.0mm 0 W/m2
20:30 61.3 °F /  16.3 °C 55.4 °F /  13 °C 29.8in /  1008.5hPa South 0.9mph /  1.4km/h 2mph /  3.2km/h 81% 0in /  0.0mm 0 W/m2
20:35 61.2 °F /  16.2 °C 55.2 °F /  12.9 °C 29.8in /  1008.5hPa Calm     81% 0in /  0.0mm 0 W/m2
20:40 61.2 °F /  16.2 °C 55.2 °F /  12.9 °C 29.8in /  1008.5hPa WNW 2mph /  3.2km/h 5mph /  8km/h 81% 0in /  0.0mm 0 W/m2
20:45 61.3 °F /  16.3 °C 55 °F /  12.8 °C 29.8in /  1008.5hPa NNE 0.9mph /  1.4km/h 3mph /  4.8km/h 80% 0in /  0.0mm 0 W/m2
20:50 62.1 °F /  16.7 °C 55 °F /  12.8 °C 29.8in /  1008.5hPa NW 2.9mph /  4.7km/h 4mph /  6.4km/h 78% 0in /  0.0mm 0 W/m2
20:55 62.8 °F /  17.1 °C 55 °F /  12.8 °C 29.8in /  1008.5hPa North 0.9mph /  1.4km/h 3mph /  4.8km/h 76% 0in /  0.0mm 0 W/m2
21:00 63.3 °F /  17.4 °C 54.5 °F /  12.5 °C 29.8in /  1008.5hPa NNW 4.9mph /  7.9km/h 8mph /  12.9km/h 73% 0in /  0.0mm 0 W/m2
21:05 64 °F /  17.8 °C 54.9 °F /  12.7 °C 29.8in /  1008.5hPa North 2.9mph /  4.7km/h 6mph /  9.7km/h 72% 0in /  0.0mm 0 W/m2
21:10 64.2 °F /  17.9 °C 55 °F /  12.8 °C 29.8in /  1008.8hPa Calm   8mph /  12.9km/h 72% 0in /  0.0mm 0 W/m2
21:15 64.6 °F /  18.1 °C 55.4 °F /  13 °C 29.8in /  1008.8hPa WNW 0.9mph /  1.4km/h 5mph /  8km/h 72% 0in /  0.0mm 0 W/m2
21:20 64.6 °F /  18.1 °C 55.4 °F /  13 °C 29.8in /  1008.8hPa NNW 0.9mph /  1.4km/h 4mph /  6.4km/h 72% 0in /  0.0mm 0 W/m2
21:25 64.6 °F /  18.1 °C 55.4 °F /  13 °C 29.8in /  1008.8hPa North 2mph /  3.2km/h 2mph /  3.2km/h 72% 0in /  0.0mm 0 W/m2
21:30 64.6 °F /  18.1 °C 55.4 °F /  13 °C 29.8in /  1008.8hPa Calm   3mph /  4.8km/h 72% 0in /  0.0mm 0 W/m2
21:35 64.6 °F /  18.1 °C 55.4 °F /  13 °C 29.8in /  1008.8hPa Calm   3mph /  4.8km/h 72% 0in /  0.0mm 0 W/m2
21:40 64.6 °F /  18.1 °C 55.8 °F /  13.2 °C 29.8in /  1008.8hPa ENE 2.9mph /  4.7km/h 4mph /  6.4km/h 73% 0in /  0.0mm 0 W/m2
21:46 64.2 °F /  17.9 °C 55.8 °F /  13.2 °C 29.8in /  1008.8hPa SSW 0.9mph /  1.4km/h 1mph /  1.6km/h 74% 0in /  0.0mm 0 W/m2
21:51 64 °F /  17.8 °C 55.6 °F /  13.1 °C 29.8in /  1009.1hPa SW 0.9mph /  1.4km/h 4mph /  6.4km/h 74% 0in /  0.0mm 0 W/m2
21:56 64 °F /  17.8 °C 55.9 °F /  13.3 °C 29.8in /  1009.1hPa Calm   2mph /  3.2km/h 75% 0in /  0.0mm 0 W/m2
22:01 63.9 °F /  17.7 °C 56.1 °F /  13.4 °C 29.8in /  1009.1hPa NW 0.9mph /  1.4km/h 4mph /  6.4km/h 76% 0in /  0.0mm 0 W/m2
22:06 63.7 °F /  17.6 °C 55.9 °F /  13.3 °C 29.8in /  1009.1hPa ESE 0.9mph /  1.4km/h 6mph /  9.7km/h 76% 0in /  0.0mm 0 W/m2
22:11 63.3 °F /  17.4 °C 55.6 °F /  13.1 °C 29.8in /  1009.1hPa Calm   1mph /  1.6km/h 76% 0in /  0.0mm 0 W/m2
22:16 63.3 °F /  17.4 °C 55.6 °F /  13.1 °C 29.8in /  1009.1hPa Calm   6mph /  9.7km/h 76% 0in /  0.0mm 0 W/m2
22:21 63.3 °F /  17.4 °C 55.6 °F /  13.1 °C 29.8in /  1009.5hPa Calm   4mph /  6.4km/h 76% 0in /  0.0mm 0 W/m2
22:26 63.5 °F /  17.5 °C 55.4 °F /  13 °C 29.8in /  1009.5hPa Calm   4mph /  6.4km/h 75% 0in /  0.0mm 0 W/m2
22:31 63.3 °F /  17.4 °C 55.2 °F /  12.9 °C 29.8in /  1009.5hPa Calm   2mph /  3.2km/h 75% 0in /  0.0mm 0 W/m2
22:36 63.1 °F /  17.3 °C 55.4 °F /  13 °C 29.8in /  1009.5hPa NNW 0.9mph /  1.4km/h 4mph /  6.4km/h 76% 0in /  0.0mm 0 W/m2
22:41 63.1 °F /  17.3 °C 55.4 °F /  13 °C 29.8in /  1009.8hPa North 2.9mph /  4.7km/h 3mph /  4.8km/h 76% 0in /  0.0mm 0 W/m2
22:46 63.1 °F /  17.3 °C 55.4 °F /  13 °C 29.8in /  1009.8hPa West 0.9mph /  1.4km/h 2mph /  3.2km/h 76% 0in /  0.0mm 0 W/m2
22:51 63 °F /  17.2 °C 55.2 °F /  12.9 °C 29.8in /  1009.8hPa East 0.9mph /  1.4km/h 4mph /  6.4km/h 76% 0in /  0.0mm 0 W/m2
22:56 63.1 °F /  17.3 °C 55.4 °F /  13 °C 29.8in /  1009.8hPa NE 2mph /  3.2km/h 4mph /  6.4km/h 76% 0in /  0.0mm 0 W/m2
23:01 63.1 °F /  17.3 °C 55.8 °F /  13.2 °C 29.8in /  1009.8hPa North 0.9mph /  1.4km/h 7mph /  11.3km/h 77% 0in /  0.0mm 0 W/m2
23:06 63.3 °F /  17.4 °C 55.9 °F /  13.3 °C 29.8in /  1009.8hPa Calm   3mph /  4.8km/h 77% 0in /  0.0mm 0 W/m2
23:11 63.3 °F /  17.4 °C 55.9 °F /  13.3 °C 29.8in /  1009.8hPa Calm   3mph /  4.8km/h 77% 0in /  0.0mm 0 W/m2
23:16 63.3 °F /  17.4 °C 55.9 °F /  13.3 °C 29.8in /  1009.8hPa ENE 0.9mph /  1.4km/h 2mph /  3.2km/h 77% 0in /  0.0mm 0 W/m2
23:21 63.3 °F /  17.4 °C 56.3 °F /  13.5 °C 29.8in /  1010.2hPa NW 2mph /  3.2km/h 3mph /  4.8km/h 78% 0in /  0.0mm 0 W/m2
23:26 63.5 °F /  17.5 °C 56.5 °F /  13.6 °C 29.8in /  1010.2hPa NW 0.9mph /  1.4km/h 3mph /  4.8km/h 78% 0in /  0.0mm 0 W/m2
23:31 63.3 °F /  17.4 °C 56.3 °F /  13.5 °C 29.8in /  1010.2hPa WSW 2.9mph /  4.7km/h 4mph /  6.4km/h 78% 0in /  0.0mm 0 W/m2
23:36 63.3 °F /  17.4 °C 56.7 °F /  13.7 °C 29.8in /  1010.2hPa North 4mph /  6.4km/h 4mph /  6.4km/h 79% 0in /  0.0mm 0 W/m2
23:41 63.3 °F /  17.4 °C 56.7 °F /  13.7 °C 29.8in /  1010.2hPa NW 4mph /  6.4km/h 8mph /  12.9km/h 79% 0in /  0.0mm 0 W/m2
23:46 63.3 °F /  17.4 °C 56.7 °F /  13.7 °C 29.8in /  1010.2hPa Calm   7mph /  11.3km/h 79% 0in /  0.0mm 0 W/m2
23:51 63.3 °F /  17.4 °C 56.7 °F /  13.7 °C 29.8in /  1010.2hPa NNW 2mph /  3.2km/h 4mph /  6.4km/h 79% 0in /  0.0mm 0 W/m2
23:56 63.3 °F /  17.4 °C 56.7 °F /  13.7 °C 29.8in /  1010.2hPa NW 2mph /  3.2km/h 9mph /  14.5km/h 79% 0in /  0.0mm 0 W/m2
Juneau County Weather
Compliments of Weather Underground - 4 mb